CheckWX is a tool to help pilots better visualize weather data.  It is not intended as a substitute for an official pre-flight weather briefing.

05:28:46 UTC

KORH METAR
Worcester Regional Airport
Worcester, Massachusetts, USA
Current

35 mins ago

KORH 240454Z 10003KT 10SM BKN018 BKN100 M01/M06 A3021 RMK AO2 SLP245 T10061061 400221061
Observed
Feb-24 @ 04:54 UTC
Wind
  • 100° at 3 KTS
Visibility
10 SM
Flight Rules
MVFR
Cloud Levels
  • Broken at 1,800' AGL
  • Broken at 10,000' AGL
Temperature
-1°C / 30°F
Dewpoint
-6°C / 21°F
Humidity
69%
Altimeter
30.21" Hg
Pressure
1024.5 hPa
Previous

2 hours ago

KORH 240354Z 11003KT 10SM BKN120 M01/M07 A3024 RMK AO2 SLP253 T10061067
Observed
Feb-24 @ 03:54 UTC
Wind
  • 110° at 3 KTS
Visibility
10 SM
Flight Rules
VFR
Cloud Levels
  • Broken at 12,000' AGL
Temperature
-1°C / 30°F
Dewpoint
-7°C / 19°F
Humidity
64%
Altimeter
30.24" Hg
Pressure
1025.3 hPa
Previous

3 hours ago

KORH 240254Z 15003KT 10SM CLR 00/M07 A3026 RMK AO2 SLP261 T00001067 58011
Observed
Feb-24 @ 02:54 UTC
Wind
  • 150° at 3 KTS
Visibility
10 SM
Flight Rules
VFR
Cloud Levels
  • Clear skies
Temperature
C / 32°F
Dewpoint
-7°C / 19°F
Humidity
60%
Altimeter
30.26" Hg
Pressure
1026.1 hPa